createdAt,value
2022-10-28T10:27:21.284Z,0.80
2022-10-28T10:29:52.060Z,1.10
2022-10-28T10:32:22.490Z,0.90
2022-10-28T10:34:58.788Z,1.20
2022-10-28T10:37:27.163Z,0.70
2022-10-28T10:40:12.729Z,0.40
2022-10-28T10:42:51.696Z,1.00
2022-10-28T10:45:30.089Z,1.87
2022-10-28T10:48:11.899Z,0.57
2022-10-28T10:50:40.385Z,0.63
2022-10-28T10:53:17.945Z,0.40
2022-10-28T10:55:52.138Z,0.60
2022-10-28T10:58:23.732Z,0.70
2022-10-28T11:00:53.302Z,0.97
2022-10-28T11:03:25.632Z,1.17
2022-10-28T11:06:18.440Z,0.80
2022-10-28T11:08:45.159Z,0.70
2022-10-28T11:11:15.688Z,0.93
2022-10-28T11:13:46.324Z,0.60
2022-10-28T11:16:22.703Z,1.00
2022-10-28T11:18:52.839Z,0.87
2022-10-28T11:21:43.799Z,0.90
2022-10-28T11:24:29.111Z,0.97
2022-10-28T11:27:03.896Z,1.03
2022-10-28T11:29:33.555Z,1.10
2022-10-28T11:32:22.380Z,0.70
2022-10-28T11:35:11.322Z,0.60
2022-10-28T11:37:52.971Z,0.70
2022-10-28T11:40:34.253Z,0.60
2022-10-28T11:43:15.600Z,0.70
2022-10-28T11:45:51.317Z,0.73
2022-10-28T11:48:37.882Z,0.70
2022-10-28T11:51:13.126Z,1.00
2022-10-28T11:54:06.847Z,0.90
2022-10-28T11:56:38.701Z,0.80
2022-10-28T11:59:25.506Z,0.57
2022-10-28T12:02:05.492Z,0.80
2022-10-28T12:04:53.881Z,0.70
2022-10-28T12:07:46.180Z,0.90
2022-10-28T12:10:31.433Z,0.60
2022-10-28T12:13:09.040Z,0.83
2022-10-28T12:15:46.749Z,0.70
2022-10-28T12:18:24.148Z,0.90
2022-10-28T12:20:59.140Z,0.70
2022-10-28T12:23:28.375Z,0.50
2022-10-28T12:25:58.873Z,1.23
2022-10-28T12:28:31.802Z,0.70
2022-10-28T12:31:00.237Z,1.50
2022-10-28T12:33:38.290Z,0.83
2022-10-28T12:36:20.208Z,1.30
2022-10-28T12:38:55.754Z,0.60
2022-10-28T12:41:27.756Z,0.70
2022-10-28T12:44:00.870Z,0.50
2022-10-28T12:46:38.467Z,0.70
2022-10-28T12:49:19.547Z,0.53
2022-10-28T12:51:48.194Z,0.47
2022-10-28T12:54:26.744Z,0.73
2022-10-28T12:57:02.730Z,0.53
2022-10-28T12:59:38.133Z,0.60
2022-10-28T13:02:12.654Z,0.40
2022-10-28T13:04:42.262Z,0.40
2022-10-28T13:07:37.065Z,0.90
2022-10-28T13:10:16.618Z,0.60
2022-10-28T13:13:20.705Z,0.40
2022-10-28T13:16:11.749Z,0.77
2022-10-28T13:19:12.020Z,0.60
2022-10-28T13:21:57.773Z,0.90
2022-10-28T13:24:32.487Z,0.63
2022-10-28T13:27:03.725Z,0.73
2022-10-28T13:29:35.688Z,0.87
2022-10-28T13:32:03.864Z,0.70
2022-10-28T13:34:34.984Z,0.67
2022-10-28T13:37:07.092Z,0.97
2022-10-28T13:39:44.521Z,1.30
2022-10-28T13:42:47.211Z,0.77
2022-10-28T13:45:48.186Z,0.80
2022-10-28T13:48:45.485Z,2.17
2022-10-28T13:51:46.266Z,0.53
2022-10-28T13:54:31.942Z,1.50
2022-10-28T13:57:07.454Z,1.17
2022-10-28T13:59:50.889Z,1.00
2022-10-28T14:02:38.118Z,1.43
2022-10-28T14:05:08.490Z,1.00
2022-10-28T14:07:39.386Z,0.80
2022-10-28T14:10:22.084Z,0.90
2022-10-28T14:12:54.255Z,0.80
2022-10-28T14:15:26.325Z,0.70
2022-10-28T14:18:09.737Z,1.00
2022-10-28T14:20:40.856Z,0.83
2022-10-28T14:24:06.656Z,1.60
2022-10-28T14:27:30.937Z,1.53
2022-10-28T14:30:24.765Z,1.47
2022-10-28T14:33:00.638Z,1.17
2022-10-28T14:35:34.609Z,0.90
2022-10-28T14:38:36.191Z,1.10
2022-10-28T14:41:18.846Z,0.53
2022-10-28T14:43:57.140Z,0.70
2022-10-28T14:46:37.080Z,0.90
2022-10-28T14:49:14.216Z,1.30
2022-10-28T14:51:43.311Z,1.70
2022-10-28T14:54:16.943Z,1.07
2022-10-28T14:56:46.145Z,2.00
2022-10-28T14:59:25.639Z,1.60
2022-10-28T15:02:11.971Z,2.27
2022-10-28T15:04:42.364Z,3.83
2022-10-28T15:07:14.429Z,1.30
2022-10-28T15:09:44.371Z,5.07
2022-10-28T15:12:14.423Z,2.17
2022-10-28T15:14:46.388Z,2.83
2022-10-28T15:17:18.511Z,2.20
2022-10-28T15:19:48.275Z,1.73
2022-10-28T15:22:20.242Z,2.40
2022-10-28T15:24:59.027Z,2.17
2022-10-28T15:27:29.103Z,1.77
2022-10-28T15:29:57.952Z,2.13
2022-10-28T15:32:30.763Z,3.40
2022-10-28T15:34:59.114Z,2.70
2022-10-28T15:37:31.901Z,3.73
2022-10-28T15:40:20.750Z,4.27
2022-10-28T15:42:53.662Z,5.40
2022-10-28T15:45:25.868Z,3.93
2022-10-28T15:47:57.103Z,4.90
2022-10-28T15:50:29.348Z,5.13
2022-10-28T15:53:22.551Z,4.40
2022-10-28T15:56:09.668Z,5.73
2022-10-28T15:58:40.648Z,5.35
2022-10-28T16:01:13.749Z,3.50
2022-10-28T16:03:45.330Z,5.50
2022-10-28T16:06:29.113Z,14.63
2022-10-28T16:09:18.288Z,2.50
2022-10-28T16:11:48.954Z,2.17
2022-10-28T16:14:32.919Z,2.80
2022-10-28T16:17:08.387Z,2.13
2022-10-28T16:19:39.995Z,3.30
2022-10-28T16:22:11.646Z,5.50
2022-10-28T16:24:39.643Z,3.50
2022-10-28T16:27:17.827Z,6.17
2022-10-28T16:29:45.801Z,4.47
2022-10-28T16:32:15.365Z,4.47
2022-10-28T16:34:44.852Z,4.57
2022-10-28T16:37:24.153Z,5.80
2022-10-28T16:39:52.338Z,5.73
2022-10-28T16:42:21.769Z,2.77
2022-10-28T16:44:50.408Z,2.20
2022-10-28T16:47:20.336Z,2.40
2022-10-28T16:49:54.199Z,2.20
2022-10-28T16:52:26.814Z,2.37
2022-10-28T16:54:55.164Z,2.37
2022-10-28T16:59:52.916Z,2.23
2022-10-28T17:02:25.152Z,1.87
2022-10-28T17:04:54.546Z,2.10
2022-10-28T17:07:22.653Z,2.30
2022-10-28T17:09:51.888Z,2.30
2022-10-28T17:12:21.545Z,2.47
2022-10-28T17:14:49.925Z,2.50
2022-10-28T17:17:18.546Z,2.50
2022-10-28T17:19:46.766Z,3.07
2022-10-28T17:22:16.248Z,2.40
2022-10-28T17:24:44.159Z,3.17
2022-10-28T17:27:12.859Z,4.17
2022-10-28T17:29:41.252Z,3.13
2022-10-28T17:32:09.536Z,3.03
2022-10-28T17:34:37.636Z,3.27
2022-10-28T17:37:07.984Z,2.70
2022-10-28T17:39:37.872Z,3.63
2022-10-28T17:42:06.050Z,3.80
2022-10-28T17:44:34.024Z,6.80
2022-10-28T17:47:02.093Z,4.27
2022-10-28T17:49:30.812Z,4.20
2022-10-28T17:51:58.797Z,4.03
2022-10-28T18:00:08.576Z,3.90
2022-10-28T18:03:19.086Z,2.73
2022-10-28T18:05:49.777Z,2.40
2022-10-28T18:08:25.113Z,2.30
2022-10-28T18:11:17.858Z,3.10
2022-10-28T18:14:48.437Z,2.80
2022-10-28T18:17:46.497Z,3.63
2022-10-28T18:20:17.716Z,2.90
2022-10-28T18:25:49.647Z,4.80
2022-10-28T18:28:26.636Z,4.60
2022-10-28T18:30:54.985Z,3.23
2022-10-28T18:33:55.595Z,3.57
2022-10-28T18:36:53.843Z,4.60
2022-10-28T18:39:23.984Z,5.50
2022-10-28T18:42:30.044Z,4.00
2022-10-28T18:45:00.664Z,4.13
2022-10-28T18:47:32.635Z,4.57
2022-10-28T18:50:03.948Z,5.13
2022-10-28T18:52:32.835Z,5.50
2022-10-28T18:55:03.924Z,5.80
2022-10-28T18:57:38.548Z,5.10
2022-10-28T19:00:19.396Z,5.47
2022-10-28T19:02:56.321Z,6.30
2022-10-28T19:05:31.046Z,4.10
2022-10-28T19:08:01.176Z,4.13
2022-10-28T19:10:30.902Z,4.33
2022-10-28T19:13:04.382Z,4.57
2022-10-28T19:15:40.345Z,4.40
2022-10-28T19:18:13.188Z,5.43
2022-10-28T19:20:56.761Z,5.47
2022-10-28T19:23:33.899Z,4.70
2022-10-28T19:26:48.839Z,3.80
2022-10-28T19:29:53.704Z,4.83
2022-10-28T19:38:32.166Z,5.40
2022-10-28T19:41:08.182Z,4.27
2022-10-28T19:46:22.153Z,4.70
2022-10-28T19:48:53.197Z,4.93
2022-10-28T19:51:23.314Z,4.33
2022-10-28T19:53:55.459Z,4.53
2022-10-28T19:56:24.538Z,5.23
2022-10-28T19:58:54.585Z,5.20
2022-10-28T20:01:24.288Z,4.30
2022-10-28T20:03:54.125Z,5.90
2022-10-28T20:06:23.616Z,4.87
2022-10-28T20:08:53.394Z,4.97
2022-10-28T20:11:26.153Z,5.20
2022-10-28T20:13:55.902Z,4.73
2022-10-28T20:16:25.338Z,4.20
2022-10-28T20:18:55.767Z,4.47
2022-10-28T20:21:25.435Z,4.33
2022-10-28T20:23:56.642Z,4.27
2022-10-28T20:26:26.916Z,5.40
2022-10-28T20:28:55.096Z,4.60
2022-10-28T20:31:25.353Z,4.70
2022-10-28T20:33:54.581Z,3.90
2022-10-28T20:36:37.205Z,4.27
2022-10-28T20:39:09.152Z,3.63
2022-10-28T20:41:39.310Z,4.27
2022-10-28T20:44:08.164Z,4.50
2022-10-28T20:46:36.746Z,3.70
2022-10-28T20:49:05.542Z,3.70
2022-10-28T20:51:34.824Z,3.77
2022-10-28T20:54:03.121Z,3.93
2022-10-28T20:56:35.410Z,3.40
2022-10-28T20:59:03.598Z,3.50
2022-10-28T21:01:33.900Z,4.23
2022-10-28T21:04:04.408Z,3.63
2022-10-28T21:06:33.186Z,3.50
2022-10-28T21:09:01.687Z,3.30
2022-10-28T21:11:29.883Z,3.33
2022-10-28T21:14:01.941Z,2.83
2022-10-28T21:16:30.822Z,2.80
2022-10-28T21:19:00.240Z,2.40
2022-10-28T21:21:28.816Z,2.87
2022-10-28T21:23:57.303Z,2.97
2022-10-28T21:26:26.879Z,2.67
2022-10-28T21:28:56.469Z,2.27
2022-10-28T21:32:05.562Z,2.13
2022-10-28T21:34:35.490Z,2.03
2022-10-28T21:37:17.752Z,3.13
2022-10-28T21:39:47.221Z,2.93
2022-10-28T21:42:15.365Z,2.23
2022-10-28T21:44:43.625Z,2.13
2022-10-28T21:47:11.986Z,2.57
2022-10-28T21:49:41.725Z,1.90
2022-10-28T21:52:10.254Z,2.10
2022-10-28T21:54:38.241Z,1.80
2022-10-28T21:57:07.208Z,1.57
2022-10-28T21:59:35.131Z,2.30
2022-10-28T22:02:03.338Z,2.33
2022-10-28T22:04:31.743Z,1.70
2022-10-28T22:07:02.662Z,2.40
2022-10-28T22:09:34.838Z,1.73
2022-10-28T22:12:06.561Z,1.90
2022-10-28T22:14:34.690Z,1.93
2022-10-28T22:17:02.935Z,2.20
2022-10-28T22:19:32.039Z,2.53
2022-10-28T22:22:07.242Z,2.33
2022-10-28T22:24:36.931Z,2.90
2022-10-28T22:27:18.885Z,2.13
2022-10-28T22:29:48.513Z,2.30
2022-10-28T22:32:16.658Z,1.80
2022-10-28T22:34:47.566Z,1.95
2022-10-28T22:37:17.491Z,2.70
2022-10-28T22:39:45.735Z,1.80
2022-10-28T22:42:14.310Z,1.70
2022-10-28T22:44:42.646Z,2.20
2022-10-28T22:47:11.043Z,1.30
2022-10-28T22:49:41.668Z,1.70
2022-10-28T22:52:09.802Z,1.63
2022-10-28T22:54:39.717Z,1.70
2022-10-28T22:57:07.814Z,2.17
2022-10-28T22:59:35.855Z,2.00
2022-10-28T23:02:04.198Z,1.80
2022-10-28T23:04:33.598Z,2.00
2022-10-28T23:07:02.174Z,1.67
2022-10-28T23:09:30.726Z,1.23
2022-10-28T23:12:01.541Z,2.00
2022-10-28T23:14:30.934Z,2.20
2022-10-28T23:17:00.412Z,2.10
2022-10-28T23:19:28.932Z,1.80
2022-10-28T23:21:59.409Z,2.37
2022-10-28T23:24:30.651Z,2.07
2022-10-28T23:27:08.074Z,1.80
2022-10-28T23:29:42.792Z,1.97
2022-10-28T23:32:13.016Z,1.70
2022-10-28T23:34:43.421Z,2.03
2022-10-28T23:37:18.159Z,1.97
2022-10-28T23:39:49.380Z,1.97
2022-10-28T23:42:21.168Z,1.40
2022-10-28T23:44:52.253Z,1.80
2022-10-28T23:47:26.308Z,2.13
2022-10-28T23:49:56.964Z,1.80
